Nearby METAR Reports

 

EGNR - Hawarden (aut), United Kingdom
Distance from station: ESE 33mi, 53km
Updated: 24/01/2022 19:20
NOT Current
Overcast
Overcast
 Wind from SSW
Wind: SSW 3 mph , 6 km/h
Temperature: 2°C
Dew Point: 0°C
Humidity: 87%
Barometer: 1035 hPa
Clouds: Overcast
Visibility: 4 miles , 6 km
Cloud details: Overcast 396 m
2022/01/24 19:20 EGNR 241920Z 21003KT 150V230 6000 OVC013 02/00 Q1035
EGOV - Valley Raf, United Kingdom
Distance from station: W 33mi, 53km
Updated: 25/01/2022 01:50
Overcast
Overcast
 Wind from S
Wind: S 8 mph , 13 km/h
Temperature: 4°C
Wind Chill: 1°C
Dew Point: 2°C
Humidity: 87%
Barometer: 1033 hPa
Clouds: Overcast
Visibility: 6 miles , 10 km
Cloud details: Overcast 366 m
2022/01/25 01:50 EGOV 250150Z AUTO 19007KT 9999 OVC012/// 04/02 Q1033
 
EGGP - Liverpool Airpor, United Kingdom
Distance from station: E 37mi, 59km
Updated: 25/01/2022 02:20
Overcast
Overcast
 Wind from S
Wind: S 8 mph , 13 km/h
Temperature: 2°C
Wind Chill: -1°C
Dew Point: 0°C
Humidity: 87%
Barometer: 1034 hPa
Clouds: Overcast
Visibility: 5 miles , 8 km
Cloud details: Overcast 335 m
2022/01/25 02:20 EGGP 250220Z AUTO 17007KT 8000 OVC011/// 02/00 Q1034
EGNH - Blackpool Airpor, United Kingdom
Distance from station: NE 44mi, 72km
Updated: 24/01/2022 19:50
NOT Current
Haze, Overcast
Haze, Overcast
 Wind from S
Wind: S 5 mph , 7 km/h
Temperature: 3°C
Wind Chill: 1°C
Dew Point: 1°C
Humidity: 87%
Barometer: 1034 hPa
Summary: Haze
Clouds: Overcast
Visibility: 3 miles , 5 km
Cloud details: Overcast 305 m
2022/01/24 19:50 EGNH 241950Z 17004KT 4500 HZ OVC010 03/01 Q1034
 
EGNO - Wharton, United Kingdom
Distance from station: NE 47mi, 76km
Updated: 24/01/2022 18:50
NOT Current
Haze, Mostly cloudy
Haze, Mostly cloudy
 Wind from SSW
Wind: SSW 2 mph , 4 km/h
Temperature: 2°C
Dew Point: 1°C
Humidity: 93%
Barometer: 1034 hPa
Summary: Haze
Clouds: Mostly cloudy
Visibility: 3 miles , 5 km
Cloud details: Mostly cloudy 305 m
2022/01/24 18:50 EGNO 241850Z 21002KT 4500 HZ BKN010 02/01 Q1034
EGOS - Shawbury Raf, United Kingdom
Distance from station: SE 56mi, 89km
Updated: 25/01/2022 01:50
Haze, Overcast
Haze, Overcast
 Wind from SSW
Wind: SSW 7 mph , 11 km/h
Temperature: 2°C
Wind Chill: -1°C
Dew Point: 0°C
Humidity: 87%
Barometer: 1034 hPa
Summary: Haze
Clouds: Overcast
Visibility: 3 miles , 5 km
Cloud details: Overcast 366 m
2022/01/25 01:50 EGOS 250150Z AUTO 20006KT 5000 HZ OVC012/// 02/M00 Q1034
 
EGCC - Manchester Intl, United Kingdom
Distance from station: E 61mi, 98km
Updated: 25/01/2022 02:20
Haze, Overcast
Haze, Overcast
 Wind from varies
Wind: varies 2 mph , 4 km/h
Temperature: 1°C
Dew Point: 0°C
Humidity: 93%
Barometer: 1034 hPa
Summary: Haze
Clouds: Overcast
Visibility: 3 miles , 5 km
Cloud details: Overcast 244 m
2022/01/25 02:20 EGCC 250220Z AUTO VRB02KT 5000 HZ OVC008 01/M00 Q1034 TEMPO 4000
EGNS - Isle Of Man/Rona, United Kingdom
Distance from station: NW 66mi, 107km
Updated: 25/01/2022 01:50
Overcast
Overcast
 Wind from SSE
Wind: SSE 6 mph , 9 km/h
Temperature: 5°C
Wind Chill: 3°C
Dew Point: 2°C
Humidity: 81%
Barometer: 1033 hPa
Clouds: Overcast
Visibility: 6 miles , 10 km
Cloud details: Overcast 366 m
2022/01/25 01:50 EGNS 250150Z 16005KT 120V190 9999 OVC012 05/02 Q1033
 
EGNM - Leeds And Bradfo, United Kingdom
Distance from station: ENE 95mi, 153km
Updated: 24/01/2022 21:50
NOT Current
Clear
Clear
 Wind from SSW
Wind: SSW 6 mph , 9 km/h
Temperature: 1°C
Wind Chill: -2°C
Dew Point: 1°C
Humidity: 100%
Barometer: 1033 hPa
Summary: Clear
Visibility: greater than 7 miles , 10 km
2022/01/24 21:50 EGNM 242150Z 21005KT CAVOK 01/01 Q1033
EGBB - Birmingham Airpo, United Kingdom
Distance from station: ESE 100mi, 161km
Updated: 25/01/2022 02:20
Overcast
Overcast
 Wind from varies
Wind: varies 2 mph , 4 km/h
Temperature: 2°C
Dew Point: 1°C
Humidity: 93%
Barometer: 1034 hPa
Clouds: Overcast
Visibility: 5 miles , 8 km
Cloud details: Overcast 335 m
2022/01/25 02:20 EGBB 250220Z VRB02KT 8000 OVC011 02/01 Q1034